createdAt,value
2018-12-09T00:00:23.353Z,8.40
2018-12-09T00:02:51.681Z,8.30
2018-12-09T00:05:20.649Z,8.30
2018-12-09T00:07:49.108Z,8.30
2018-12-09T00:10:17.384Z,8.30
2018-12-09T00:12:45.892Z,8.30
2018-12-09T00:15:14.509Z,8.20
2018-12-09T00:17:43.373Z,8.20
2018-12-09T00:20:12.704Z,8.20
2018-12-09T00:22:41.059Z,8.30
2018-12-09T00:25:09.533Z,8.40
2018-12-09T00:27:37.968Z,8.50
2018-12-09T00:30:06.842Z,8.50
2018-12-09T00:32:35.206Z,8.50
2018-12-09T00:35:03.823Z,8.40
2018-12-09T00:37:32.881Z,8.50
2018-12-09T00:40:01.468Z,8.50
2018-12-09T00:42:30.698Z,8.40
2018-12-09T00:44:59.053Z,8.40
2018-12-09T00:47:27.387Z,8.50
2018-12-09T00:49:55.822Z,8.50
2018-12-09T00:52:24.203Z,8.50
2018-12-09T00:54:52.557Z,8.50
2018-12-09T00:57:21.073Z,8.60
2018-12-09T00:59:49.602Z,8.60
2018-12-09T01:02:17.953Z,8.60
2018-12-09T01:04:46.282Z,8.70
2018-12-09T01:07:14.646Z,8.70
2018-12-09T01:09:43.115Z,8.80
2018-12-09T01:12:11.471Z,8.80
2018-12-09T01:14:40.930Z,8.80
2018-12-09T01:17:09.297Z,8.90
2018-12-09T01:19:37.760Z,8.90
2018-12-09T01:22:06.169Z,8.90
2018-12-09T01:24:35.346Z,9.00
2018-12-09T01:27:03.911Z,9.00
2018-12-09T01:29:33.038Z,9.00
2018-12-09T01:32:01.836Z,9.00
2018-12-09T01:34:31.480Z,9.20
2018-12-09T01:37:00.181Z,9.10
2018-12-09T01:39:28.553Z,9.10
2018-12-09T01:41:57.893Z,9.10
2018-12-09T01:44:26.373Z,9.10
2018-12-09T01:46:54.863Z,9.20
2018-12-09T01:49:23.308Z,9.20
2018-12-09T01:51:51.958Z,9.10
2018-12-09T01:54:21.200Z,9.10
2018-12-09T01:56:49.685Z,9.10
2018-12-09T01:59:18.217Z,9.20
2018-12-09T02:01:46.783Z,9.20
2018-12-09T02:04:16.392Z,9.00
2018-12-09T02:06:44.944Z,9.10
2018-12-09T02:09:13.337Z,9.10
2018-12-09T02:11:41.732Z,9.10
2018-12-09T02:14:10.152Z,9.10
2018-12-09T02:16:38.556Z,9.20
2018-12-09T02:19:20.228Z,9.10
2018-12-09T02:21:49.145Z,9.00
2018-12-09T02:24:17.529Z,8.90
2018-12-09T02:26:45.995Z,8.90
2018-12-09T02:29:14.526Z,8.90
2018-12-09T02:31:43.312Z,8.90
2018-12-09T02:34:12.327Z,8.90
2018-12-09T02:36:40.835Z,8.80
2018-12-09T02:39:11.140Z,8.80
2018-12-09T02:41:40.552Z,8.80
2018-12-09T02:44:09.088Z,8.80
2018-12-09T02:46:38.395Z,8.70
2018-12-09T02:49:07.797Z,8.80
2018-12-09T02:51:36.483Z,8.80
2018-12-09T02:54:05.304Z,8.80
2018-12-09T02:56:33.775Z,8.90
2018-12-09T02:59:04.044Z,8.90
2018-12-09T03:01:32.905Z,9.00
2018-12-09T03:04:02.913Z,9.00
2018-12-09T03:06:31.414Z,9.10
2018-12-09T03:09:00.834Z,9.10
2018-12-09T03:11:29.161Z,9.00
2018-12-09T03:13:58.465Z,8.90
2018-12-09T03:16:28.141Z,8.80
2018-12-09T03:18:57.193Z,8.60
2018-12-09T03:21:25.658Z,8.50
2018-12-09T03:23:54.115Z,8.40
2018-12-09T03:26:22.467Z,8.30
2018-12-09T03:28:50.830Z,8.30
2018-12-09T03:31:19.116Z,8.30
2018-12-09T03:33:47.606Z,8.20
2018-12-09T03:36:16.618Z,8.20
2018-12-09T03:38:45.108Z,8.20
2018-12-09T03:41:14.382Z,8.10
2018-12-09T03:43:42.819Z,8.20
2018-12-09T03:46:12.185Z,8.30
2018-12-09T03:48:40.994Z,8.20
2018-12-09T03:51:09.657Z,8.20
2018-12-09T03:53:38.312Z,8.20
2018-12-09T03:56:06.672Z,8.20
2018-12-09T03:58:35.105Z,8.20
2018-12-09T04:01:03.741Z,8.30
2018-12-09T04:03:32.118Z,8.40
2018-12-09T04:06:00.507Z,8.60
2018-12-09T04:08:28.923Z,8.60
2018-12-09T04:10:58.587Z,8.70
2018-12-09T04:13:26.977Z,8.70
2018-12-09T04:15:55.623Z,8.70
2018-12-09T04:18:24.191Z,8.80
2018-12-09T04:20:52.501Z,8.90
2018-12-09T04:23:21.012Z,8.90
2018-12-09T04:25:49.630Z,9.00
2018-12-09T04:28:18.045Z,9.00
2018-12-09T04:30:46.382Z,9.10
2018-12-09T04:33:14.799Z,9.10
2018-12-09T04:35:43.368Z,9.10
2018-12-09T04:38:11.787Z,9.10
2018-12-09T04:40:40.182Z,9.10
2018-12-09T04:43:08.566Z,9.00
2018-12-09T04:45:36.982Z,9.00
2018-12-09T04:48:05.487Z,9.00
2018-12-09T04:50:34.693Z,8.90
2018-12-09T04:53:03.091Z,8.80
2018-12-09T04:55:32.805Z,8.80
2018-12-09T04:58:01.265Z,8.60
2018-12-09T05:00:40.954Z,8.60
2018-12-09T05:03:09.842Z,8.60
2018-12-09T05:05:38.498Z,8.60
2018-12-09T05:08:06.912Z,8.60
2018-12-09T05:10:35.962Z,8.60
2018-12-09T05:13:04.279Z,8.50
2018-12-09T05:15:33.144Z,8.50
2018-12-09T05:18:01.558Z,8.50
2018-12-09T05:20:30.379Z,8.50
2018-12-09T05:22:59.527Z,8.50
2018-12-09T05:25:30.484Z,8.30
2018-12-09T05:28:00.975Z,8.30
2018-12-09T05:30:29.430Z,8.00
2018-12-09T05:32:57.803Z,7.90
2018-12-09T05:35:26.186Z,7.60
2018-12-09T05:37:54.579Z,7.60
2018-12-09T05:40:22.901Z,7.50
2018-12-09T05:42:51.293Z,7.60
2018-12-09T05:45:20.811Z,7.50
2018-12-09T05:47:49.104Z,7.30
2018-12-09T05:50:17.410Z,6.80
2018-12-09T05:52:45.793Z,6.50
2018-12-09T05:55:14.100Z,6.50
2018-12-09T05:57:44.738Z,6.30
2018-12-09T06:00:14.061Z,6.30
2018-12-09T06:02:52.141Z,6.30
2018-12-09T06:05:20.533Z,6.20
2018-12-09T06:07:49.424Z,6.10
2018-12-09T06:10:18.074Z,6.00
2018-12-09T06:12:46.484Z,6.10
2018-12-09T06:15:14.939Z,6.10
2018-12-09T06:17:43.439Z,6.20
2018-12-09T06:20:12.228Z,6.10
2018-12-09T06:22:40.578Z,6.10
2018-12-09T06:25:08.886Z,6.10
2018-12-09T06:27:38.431Z,6.10
2018-12-09T06:30:09.319Z,6.00
2018-12-09T06:32:37.731Z,6.10
2018-12-09T06:35:06.174Z,6.00
2018-12-09T06:37:34.434Z,6.00
2018-12-09T06:40:03.247Z,5.90
2018-12-09T06:42:31.534Z,6.00
2018-12-09T06:44:59.916Z,5.90
2018-12-09T06:47:28.219Z,5.90
2018-12-09T06:49:56.519Z,5.90
2018-12-09T06:52:24.938Z,5.90
2018-12-09T06:54:53.229Z,6.00
2018-12-09T06:57:21.531Z,5.90
2018-12-09T06:59:50.174Z,5.90
2018-12-09T07:02:18.520Z,5.80
2018-12-09T07:04:47.047Z,5.70
2018-12-09T07:07:15.422Z,5.70
2018-12-09T07:09:43.734Z,5.70
2018-12-09T07:12:12.118Z,5.70
2018-12-09T07:14:41.024Z,5.60
2018-12-09T07:17:09.310Z,5.60
2018-12-09T07:19:37.682Z,5.60
2018-12-09T07:22:06.026Z,5.60
2018-12-09T07:24:34.330Z,5.70
2018-12-09T07:27:02.723Z,5.70
2018-12-09T07:29:31.039Z,5.80
2018-12-09T07:31:59.480Z,5.70
2018-12-09T07:34:27.750Z,5.70
2018-12-09T07:36:56.105Z,5.90
2018-12-09T07:39:24.489Z,5.80
2018-12-09T07:41:52.812Z,5.90
2018-12-09T07:44:21.196Z,5.90
2018-12-09T07:46:49.690Z,6.00
2018-12-09T07:49:18.082Z,6.10
2018-12-09T07:51:46.585Z,6.10
2018-12-09T07:54:14.964Z,6.10
2018-12-09T07:56:43.348Z,6.10
2018-12-09T07:59:12.053Z,6.10
2018-12-09T08:01:40.614Z,6.10
2018-12-09T08:04:09.253Z,6.10
2018-12-09T08:06:37.586Z,6.20
2018-12-09T08:09:06.157Z,6.20
2018-12-09T08:11:34.410Z,6.20
2018-12-09T08:14:02.711Z,6.20
2018-12-09T08:16:30.997Z,6.30
2018-12-09T08:18:59.270Z,6.30
2018-12-09T08:21:28.896Z,6.30
2018-12-09T08:24:17.721Z,6.20
2018-12-09T08:26:46.084Z,6.30
2018-12-09T08:29:14.423Z,6.40
2018-12-09T08:31:44.099Z,6.30
2018-12-09T08:34:12.358Z,6.40
2018-12-09T08:36:40.709Z,6.40
2018-12-09T08:39:09.003Z,6.40
2018-12-09T08:41:37.716Z,6.40
2018-12-09T08:44:07.064Z,6.40
2018-12-09T08:46:35.566Z,6.40
2018-12-09T08:49:04.065Z,6.40
2018-12-09T08:51:32.466Z,6.40
2018-12-09T08:54:02.765Z,6.40
2018-12-09T08:56:32.015Z,6.40
2018-12-09T08:59:00.361Z,6.50
2018-12-09T09:01:28.817Z,6.60
2018-12-09T09:03:57.134Z,6.70
2018-12-09T09:06:25.475Z,6.70
2018-12-09T09:08:54.018Z,6.80
2018-12-09T09:11:22.370Z,6.80
2018-12-09T09:13:51.130Z,6.80
2018-12-09T09:16:19.442Z,6.70
2018-12-09T09:18:47.797Z,6.70
2018-12-09T09:21:16.173Z,6.80
2018-12-09T09:23:44.465Z,6.70
2018-12-09T09:26:13.258Z,6.60
2018-12-09T09:28:42.978Z,6.70
2018-12-09T09:31:11.994Z,6.80
2018-12-09T09:33:40.921Z,6.80
2018-12-09T09:36:09.795Z,6.80
2018-12-09T09:38:38.179Z,7.00
2018-12-09T09:41:06.782Z,7.10
2018-12-09T09:43:35.179Z,7.10
2018-12-09T09:46:03.749Z,7.10
2018-12-09T09:48:33.952Z,7.20
2018-12-09T09:51:02.249Z,7.10
2018-12-09T09:53:30.748Z,7.20
2018-12-09T09:55:59.105Z,7.20
2018-12-09T09:58:27.445Z,7.40
2018-12-09T10:00:56.471Z,7.50
2018-12-09T10:03:26.055Z,7.40
2018-12-09T10:05:54.693Z,7.30
2018-12-09T10:08:23.019Z,7.30
2018-12-09T10:10:54.474Z,7.40
2018-12-09T10:13:23.760Z,7.40
2018-12-09T10:15:52.142Z,7.50
2018-12-09T10:18:20.712Z,7.40
2018-12-09T10:20:49.001Z,7.50
2018-12-09T10:23:17.305Z,7.50
2018-12-09T10:25:46.504Z,7.60
2018-12-09T10:28:14.786Z,7.60
2018-12-09T10:30:43.109Z,7.60
2018-12-09T10:33:11.365Z,7.60
2018-12-09T10:35:39.699Z,7.70
2018-12-09T10:38:08.080Z,7.70
2018-12-09T10:40:36.737Z,7.80
2018-12-09T10:43:05.004Z,7.80
2018-12-09T10:45:33.318Z,7.80
2018-12-09T10:48:01.613Z,7.90
2018-12-09T10:50:29.985Z,7.80
2018-12-09T10:52:58.294Z,7.80
2018-12-09T10:55:26.822Z,7.80
2018-12-09T10:57:55.895Z,7.80
2018-12-09T11:00:30.461Z,7.80
2018-12-09T11:02:58.954Z,7.90
2018-12-09T11:05:27.527Z,7.80
2018-12-09T11:07:55.879Z,7.80
2018-12-09T11:10:24.196Z,7.80
2018-12-09T11:12:52.453Z,7.80
2018-12-09T11:15:20.857Z,7.80
2018-12-09T11:17:49.549Z,7.80
2018-12-09T11:20:17.896Z,7.60
2018-12-09T11:22:46.294Z,7.60
2018-12-09T11:25:14.824Z,7.60
2018-12-09T11:27:43.125Z,7.60
2018-12-09T11:30:11.633Z,7.40
2018-12-09T11:32:40.385Z,7.50
2018-12-09T11:35:08.782Z,7.40
2018-12-09T11:37:44.595Z,7.40
2018-12-09T11:40:13.035Z,7.60
2018-12-09T11:42:47.962Z,7.50
2018-12-09T11:45:16.604Z,7.50
2018-12-09T11:47:44.977Z,7.50
2018-12-09T11:50:13.302Z,7.50
2018-12-09T11:52:41.593Z,7.50
2018-12-09T11:55:10.099Z,7.50
2018-12-09T11:57:38.418Z,7.40
2018-12-09T12:00:11.100Z,7.40
2018-12-09T12:02:39.897Z,7.50
2018-12-09T12:05:09.168Z,7.40
2018-12-09T12:07:37.635Z,7.40
2018-12-09T12:10:07.375Z,7.30
2018-12-09T12:12:35.838Z,7.20
2018-12-09T12:15:05.096Z,7.20
2018-12-09T12:17:33.571Z,7.10
2018-12-09T12:20:02.076Z,7.00
2018-12-09T12:22:30.412Z,6.90
2018-12-09T12:24:58.853Z,6.90
2018-12-09T12:27:27.441Z,7.00
2018-12-09T12:29:55.884Z,6.80
2018-12-09T12:32:24.668Z,6.80
2018-12-09T12:34:53.009Z,6.70
2018-12-09T12:37:21.288Z,6.60
2018-12-09T12:39:50.366Z,6.60
2018-12-09T12:42:18.828Z,6.60
2018-12-09T12:44:47.299Z,6.70
2018-12-09T12:47:15.807Z,6.70
2018-12-09T12:49:44.211Z,6.70
2018-12-09T12:52:13.485Z,6.60
2018-12-09T12:54:42.817Z,6.50
2018-12-09T12:57:11.117Z,6.50
2018-12-09T12:59:39.418Z,6.40
2018-12-09T13:02:07.983Z,6.40
2018-12-09T13:04:36.343Z,6.40
2018-12-09T13:07:04.853Z,6.40
2018-12-09T13:09:33.257Z,6.40
2018-12-09T13:12:03.511Z,6.40
2018-12-09T13:14:32.106Z,6.40
2018-12-09T13:17:00.794Z,6.50
2018-12-09T13:19:29.270Z,6.60
2018-12-09T13:21:57.613Z,6.70
2018-12-09T13:24:26.134Z,6.70
2018-12-09T13:26:54.670Z,6.70
2018-12-09T13:29:23.061Z,6.70
2018-12-09T13:31:51.547Z,6.80
2018-12-09T13:34:19.869Z,6.80
2018-12-09T13:36:48.737Z,6.80
2018-12-09T13:39:17.175Z,6.80
2018-12-09T13:41:45.475Z,6.90
2018-12-09T13:44:13.866Z,6.80
2018-12-09T13:46:42.158Z,6.80
2018-12-09T13:49:10.574Z,6.70
2018-12-09T13:51:38.895Z,6.70
2018-12-09T13:54:07.187Z,6.70
2018-12-09T13:56:35.506Z,6.60
2018-12-09T13:59:04.532Z,6.70
2018-12-09T14:01:32.908Z,6.70
2018-12-09T14:04:01.342Z,6.70
2018-12-09T14:06:29.949Z,6.80
2018-12-09T14:08:58.348Z,6.80
2018-12-09T14:11:26.744Z,6.90
2018-12-09T14:13:55.126Z,7.10
2018-12-09T14:16:23.586Z,7.20
2018-12-09T14:18:51.910Z,7.20
2018-12-09T14:21:20.312Z,7.20
2018-12-09T14:23:48.668Z,7.20
2018-12-09T14:26:17.013Z,7.10
2018-12-09T14:28:45.470Z,7.00
2018-12-09T14:31:13.851Z,7.00
2018-12-09T14:33:42.825Z,7.00
2018-12-09T14:36:11.260Z,7.00
2018-12-09T14:38:39.544Z,7.10
2018-12-09T14:41:07.927Z,7.00
2018-12-09T14:43:36.283Z,7.00
2018-12-09T14:46:04.813Z,7.00
2018-12-09T14:48:33.605Z,6.90
2018-12-09T14:51:02.577Z,7.00
2018-12-09T14:53:30.949Z,7.10
2018-12-09T14:55:59.477Z,7.00
2018-12-09T14:58:28.569Z,6.90
2018-12-09T15:00:56.991Z,6.90
2018-12-09T15:03:25.927Z,6.90
2018-12-09T15:05:54.640Z,6.90
2018-12-09T15:08:23.067Z,6.90
2018-12-09T15:10:51.488Z,6.90
2018-12-09T15:13:20.253Z,6.80
2018-12-09T15:15:48.727Z,6.70
2018-12-09T15:18:18.128Z,6.60
2018-12-09T15:20:47.193Z,6.50
2018-12-09T15:23:17.434Z,6.50
2018-12-09T15:25:46.554Z,6.40
2018-12-09T15:28:14.939Z,6.40
2018-12-09T15:30:43.317Z,6.30
2018-12-09T15:33:11.850Z,6.20
2018-12-09T15:35:40.882Z,6.00
2018-12-09T15:38:09.182Z,5.90
2018-12-09T15:40:37.659Z,6.00
2018-12-09T15:43:12.722Z,6.00
2018-12-09T15:45:41.113Z,6.00
2018-12-09T15:48:10.473Z,5.90
2018-12-09T15:50:38.780Z,5.90
2018-12-09T15:53:07.836Z,5.90
2018-12-09T15:55:37.100Z,5.80
2018-12-09T15:58:05.617Z,5.80
2018-12-09T16:00:40.040Z,5.80
2018-12-09T16:03:09.094Z,5.80
2018-12-09T16:05:37.605Z,5.80
2018-12-09T16:08:06.186Z,5.80
2018-12-09T16:10:34.513Z,5.90
2018-12-09T16:13:03.194Z,5.90
2018-12-09T16:15:31.534Z,5.80
2018-12-09T16:18:00.681Z,5.80
2018-12-09T16:20:29.868Z,5.80
2018-12-09T16:22:58.331Z,5.80
2018-12-09T16:25:27.240Z,5.90
2018-12-09T16:27:55.689Z,5.80
2018-12-09T16:30:24.328Z,5.90
2018-12-09T16:32:52.923Z,6.00
2018-12-09T16:35:21.356Z,6.10
2018-12-09T16:37:49.877Z,6.20
2018-12-09T16:40:18.626Z,6.20
2018-12-09T16:42:48.217Z,6.20
2018-12-09T16:45:16.689Z,6.10
2018-12-09T16:47:45.072Z,6.20
2018-12-09T16:50:13.466Z,6.20
2018-12-09T16:52:41.906Z,6.20
2018-12-09T16:55:10.493Z,6.10
2018-12-09T16:57:39.909Z,6.10
2018-12-09T17:00:09.272Z,6.00
2018-12-09T17:02:37.758Z,6.00
2018-12-09T17:05:06.489Z,6.00
2018-12-09T17:07:41.938Z,6.00
2018-12-09T17:10:06.222Z,6.00
2018-12-09T17:12:34.708Z,6.10
2018-12-09T17:15:03.263Z,6.10
2018-12-09T17:17:31.726Z,6.00
2018-12-09T17:20:06.333Z,6.00
2018-12-09T17:22:34.711Z,5.90
2018-12-09T17:25:03.207Z,5.80
2018-12-09T17:27:32.141Z,5.80
2018-12-09T17:30:00.446Z,5.70
2018-12-09T17:32:29.427Z,5.80
2018-12-09T17:34:59.927Z,5.90
2018-12-09T17:37:28.181Z,5.80
2018-12-09T17:39:56.450Z,5.90
2018-12-09T17:42:24.923Z,6.00
2018-12-09T17:44:53.274Z,6.10
2018-12-09T17:47:21.692Z,6.10
2018-12-09T17:49:49.929Z,6.10
2018-12-09T17:52:18.208Z,6.00
2018-12-09T17:54:46.485Z,6.00
2018-12-09T17:57:14.728Z,5.90
2018-12-09T17:59:42.976Z,6.00
2018-12-09T18:02:11.227Z,6.00
2018-12-09T18:04:39.510Z,5.90
2018-12-09T18:07:07.884Z,5.90
2018-12-09T18:09:36.625Z,5.90
2018-12-09T18:12:05.663Z,6.00
2018-12-09T18:14:33.926Z,6.00
2018-12-09T18:17:02.251Z,6.10
2018-12-09T18:19:30.583Z,6.00
2018-12-09T18:21:58.876Z,6.00
2018-12-09T18:24:27.894Z,6.00
2018-12-09T18:26:57.795Z,6.00
2018-12-09T18:29:27.837Z,6.00
2018-12-09T18:31:57.148Z,6.00
2018-12-09T18:34:25.874Z,6.00
2018-12-09T18:36:54.626Z,6.10
2018-12-09T18:39:23.457Z,6.10
2018-12-09T18:41:52.316Z,6.10
2018-12-09T18:44:21.597Z,6.10
2018-12-09T18:46:52.304Z,6.20
2018-12-09T18:49:21.183Z,6.20
2018-12-09T18:51:50.443Z,6.20
2018-12-09T18:54:20.029Z,6.20
2018-12-09T18:56:48.497Z,6.30
2018-12-09T18:59:17.139Z,6.40
2018-12-09T19:01:45.595Z,6.20
2018-12-09T19:04:14.332Z,6.30
2018-12-09T19:06:43.158Z,6.20
2018-12-09T19:09:12.180Z,6.20
2018-12-09T19:11:41.855Z,6.20
2018-12-09T19:14:10.646Z,6.30
2018-12-09T19:16:41.000Z,6.30
2018-12-09T19:19:09.954Z,6.40
2018-12-09T19:21:40.545Z,6.30
2018-12-09T19:24:09.520Z,6.40
2018-12-09T19:26:38.425Z,6.30
2018-12-09T19:29:06.734Z,6.30
2018-12-09T19:31:35.066Z,6.20
2018-12-09T19:34:03.395Z,6.30
2018-12-09T19:36:34.651Z,6.40
2018-12-09T19:39:04.113Z,6.30
2018-12-09T19:41:32.397Z,6.30
2018-12-09T19:44:00.642Z,6.30
2018-12-09T19:46:29.256Z,6.30
2018-12-09T19:48:57.911Z,6.40
2018-12-09T19:51:26.158Z,6.40
2018-12-09T19:53:54.461Z,6.40
2018-12-09T19:56:22.721Z,6.50
2018-12-09T19:58:51.946Z,6.40
2018-12-09T20:01:20.209Z,6.40
2018-12-09T20:03:48.470Z,6.40
2018-12-09T20:06:16.924Z,6.30
2018-12-09T20:08:45.191Z,6.30
2018-12-09T20:11:13.491Z,6.40
2018-12-09T20:13:41.766Z,6.30
2018-12-09T20:16:10.148Z,6.20
2018-12-09T20:18:38.385Z,6.20
2018-12-09T20:21:07.526Z,6.10
2018-12-09T20:23:35.789Z,6.10
2018-12-09T20:26:04.198Z,6.10
2018-12-09T20:28:32.522Z,6.10
2018-12-09T20:31:00.777Z,6.10
2018-12-09T20:33:29.647Z,6.10
2018-12-09T20:35:58.747Z,6.10
2018-12-09T20:38:27.583Z,6.20
2018-12-09T20:40:56.877Z,6.10
2018-12-09T20:43:25.247Z,6.20
2018-12-09T20:45:53.524Z,6.20
2018-12-09T20:48:21.908Z,6.30
2018-12-09T20:50:50.436Z,6.30
2018-12-09T20:53:18.800Z,6.40
2018-12-09T20:55:47.141Z,6.30
2018-12-09T20:58:15.735Z,6.30
2018-12-09T21:00:44.424Z,6.30
2018-12-09T21:03:12.747Z,6.20
2018-12-09T21:05:41.245Z,6.30
2018-12-09T21:08:10.263Z,6.20
2018-12-09T21:10:38.560Z,6.30
2018-12-09T21:13:06.903Z,6.30
2018-12-09T21:15:35.248Z,6.30
2018-12-09T21:18:05.192Z,6.30
2018-12-09T21:20:33.687Z,6.30
2018-12-09T21:23:01.969Z,6.30
2018-12-09T21:25:30.280Z,6.30
2018-12-09T21:27:59.010Z,6.30
2018-12-09T21:30:27.308Z,6.30
2018-12-09T21:32:56.300Z,6.30
2018-12-09T21:35:24.600Z,6.20
2018-12-09T21:37:52.996Z,6.10
2018-12-09T21:40:21.341Z,6.00
2018-12-09T21:42:49.813Z,6.10
2018-12-09T21:45:18.167Z,6.00
2018-12-09T21:47:46.476Z,5.90
2018-12-09T21:50:14.902Z,5.70
2018-12-09T21:52:43.840Z,5.60
2018-12-09T21:55:12.248Z,5.70
2018-12-09T21:57:40.596Z,5.70
2018-12-09T22:00:09.916Z,5.60
2018-12-09T22:02:38.895Z,5.70
2018-12-09T22:05:07.698Z,5.70
2018-12-09T22:07:36.048Z,5.70
2018-12-09T22:10:05.149Z,5.80
2018-12-09T22:12:33.681Z,5.70
2018-12-09T22:15:02.047Z,5.60
2018-12-09T22:17:30.425Z,5.50
2018-12-09T22:19:59.373Z,5.50
2018-12-09T22:22:27.650Z,5.40
2018-12-09T22:24:56.175Z,5.40
2018-12-09T22:27:24.625Z,5.50
2018-12-09T22:29:53.014Z,5.50
2018-12-09T22:32:21.292Z,5.50
2018-12-09T22:34:49.727Z,5.50
2018-12-09T22:37:17.959Z,5.50
2018-12-09T22:39:46.308Z,5.50
2018-12-09T22:42:14.722Z,5.60
2018-12-09T22:44:43.140Z,5.60
2018-12-09T22:47:11.396Z,5.70
2018-12-09T22:49:39.705Z,5.70
2018-12-09T22:52:08.136Z,5.60
2018-12-09T22:54:36.398Z,5.60
2018-12-09T22:57:05.503Z,5.70
2018-12-09T22:59:34.287Z,5.70
2018-12-09T23:02:07.951Z,5.60
2018-12-09T23:04:36.358Z,5.80
2018-12-09T23:08:10.813Z,5.70
2018-12-09T23:10:39.215Z,5.60
2018-12-09T23:13:07.534Z,5.80
2018-12-09T23:15:35.857Z,5.80
2018-12-09T23:18:04.154Z,5.80
2018-12-09T23:20:32.585Z,5.80
2018-12-09T23:23:00.876Z,5.80
2018-12-09T23:25:29.230Z,5.80
2018-12-09T23:27:57.595Z,5.80
2018-12-09T23:30:26.033Z,5.80
2018-12-09T23:32:54.870Z,5.80
2018-12-09T23:35:23.727Z,6.00
2018-12-09T23:37:51.969Z,5.90
2018-12-09T23:40:20.302Z,6.00
2018-12-09T23:42:48.908Z,5.90
2018-12-09T23:45:17.539Z,5.80
2018-12-09T23:47:46.036Z,5.80
2018-12-09T23:50:14.400Z,5.70
2018-12-09T23:52:42.633Z,5.70
2018-12-09T23:55:10.951Z,5.60
2018-12-09T23:57:39.208Z,5.40
